Aeroporto :
LOGIN :

Iscrizione | Disclaimer

   EN    FR    IT 

 










Sommario :    VFR   VFR Marginale   IFR   IFR Intensivo   IFR Molto Intensivo
Visibilità : 
Base nubi : 
>= 8 km
>= 3000ft
5 / 8 km
1000 / 3000 ft
1500m / 5 km
500 / 1000 ft
800 / 1500m
200 / 500 ft
< 800m
< 200 ft
Simboli :   Temporali  Nebbia  Neve Forte  Precipitazioni Forti  Vento > 20 kt
SIGMETs :   Varie  Temporali  Ghiacco  Turbolenza  Onda orograficha  Ceneri Vulcaniche






- Altitudine del aeroporto : 3125 ft
- Codice IATA : ESB


LTAC - Ankara Esenboga

ULTIMO METAR :
  • 210620Z 36005KT 4800 -RA BR BKN025 BKN080 03/01 Q1010 BECMG 8000

METARs OBSOLETI :
  • 210550Z 03005KT 6000 -RA BKN030 BKN080 03/01 Q1010 NOSIG RMK RWY21L 36005KT RWY03L 03004KT RWY21R 02007KT
  • 210520Z 03004KT 340V050 6000 -RA BKN025 BKN080 03/01 Q1010 NOSIG RMK RWY21L 36003KT RWY03L 01003KT RWY21R 01005KT
  • 210450Z 36003KT 310V030 6000 -RA BKN025 BKN080 03/01 Q1010 NOSIG RMK RWY21L 35004KT RWY03L 34002KT RWY21R 33003KT
  • 210420Z 01004KT 320V040 8000 -RA BKN026 BKN080 03/00 Q1010 NOSIG
  • 210350Z 35006KT 9999 BKN033 BKN080 03/00 Q1009 NOSIG RMK RWY21L 36004KT 320V020 RWY03L VRB02KT RWY21R 34003KT 310V020

TAF TAF LTAC
Valido dal 21 a 06 ore il 22 a 06 ore UTC


210440Z 2106/2206 VRB02KT 9999 SCT040 BKN100
TEMPO 2106/2110 4000 -RASN BR SCT010 BKN025
TEMPO 2110/2114 -RA BKN025 BKN080
TEMPO 2114/2118 -RA
TEMPO 2201/2205 4000 -SN BR SCT010 BKN025



MetMap, La meteo Aeronautica in un colpo d'occhio ! - Copyright ORBIFLY Dicembre 2007 - Disclaimer

ORBIFLY MET'MAP TEAM :

Programmazione e sviluppo : Alexandra Zaïnal
Concezione : Baudouin d'Aumeries
Aiuto per la programmazione : Marc-Olivier Méhu
Supporto tecnico e logistico : Manuel Goepfert
Aiuto per la traduzione : Arnaldo La Scala

Contatto : metmap@orbifly.com




FONTI E CREDITI :

   NOAA